sensor_id;sensor_type;location;lat;lon;timestamp;P1;durP1;ratioP1;P2;durP2;ratioP2
17347;SDS011;8791;50.876;4.342;2023-07-16T00:02:06;11.30;;;2.20;;
17347;SDS011;8791;50.876;4.342;2023-07-16T00:04:34;9.05;;;2.28;;
17347;SDS011;8791;50.876;4.342;2023-07-16T00:07:01;7.65;;;2.17;;
17347;SDS011;8791;50.876;4.342;2023-07-16T00:09:27;8.50;;;2.60;;
17347;SDS011;8791;50.876;4.342;2023-07-16T00:11:55;7.72;;;2.28;;
17347;SDS011;8791;50.876;4.342;2023-07-16T00:14:23;4.80;;;2.35;;
17347;SDS011;8791;50.876;4.342;2023-07-16T00:16:50;10.98;;;2.92;;
17347;SDS011;8791;50.876;4.342;2023-07-16T00:19:17;3.90;;;2.03;;
17347;SDS011;8791;50.876;4.342;2023-07-16T00:21:44;6.50;;;2.25;;
17347;SDS011;8791;50.876;4.342;2023-07-16T00:24:11;7.32;;;2.22;;
17347;SDS011;8791;50.876;4.342;2023-07-16T00:26:37;8.23;;;1.85;;
17347;SDS011;8791;50.876;4.342;2023-07-16T00:29:04;9.02;;;2.42;;
17347;SDS011;8791;50.876;4.342;2023-07-16T00:31:32;9.82;;;2.80;;
17347;SDS011;8791;50.876;4.342;2023-07-16T00:33:59;13.70;;;2.70;;
17347;SDS011;8791;50.876;4.342;2023-07-16T00:36:26;7.35;;;1.90;;
17347;SDS011;8791;50.876;4.342;2023-07-16T00:38:54;5.07;;;2.17;;
17347;SDS011;8791;50.876;4.342;2023-07-16T00:41:21;9.88;;;2.22;;
17347;SDS011;8791;50.876;4.342;2023-07-16T00:43:48;11.60;;;2.47;;
17347;SDS011;8791;50.876;4.342;2023-07-16T00:46:15;11.85;;;2.55;;
17347;SDS011;8791;50.876;4.342;2023-07-16T00:48:44;11.38;;;2.60;;
17347;SDS011;8791;50.876;4.342;2023-07-16T00:51:11;9.93;;;2.45;;
17347;SDS011;8791;50.876;4.342;2023-07-16T00:53:40;6.57;;;2.20;;
17347;SDS011;8791;50.876;4.342;2023-07-16T00:56:07;9.63;;;2.40;;
17347;SDS011;8791;50.876;4.342;2023-07-16T00:58:35;9.23;;;2.28;;
17347;SDS011;8791;50.876;4.342;2023-07-16T01:01:01;15.68;;;2.95;;
17347;SDS011;8791;50.876;4.342;2023-07-16T01:03:28;9.18;;;2.42;;
17347;SDS011;8791;50.876;4.342;2023-07-16T01:05:57;11.50;;;3.17;;
17347;SDS011;8791;50.876;4.342;2023-07-16T01:08:31;8.15;;;2.58;;
17347;SDS011;8791;50.876;4.342;2023-07-16T01:11:02;9.75;;;2.20;;
17347;SDS011;8791;50.876;4.342;2023-07-16T01:13:30;4.93;;;2.20;;
17347;SDS011;8791;50.876;4.342;2023-07-16T01:15:57;7.32;;;2.47;;
17347;SDS011;8791;50.876;4.342;2023-07-16T01:18:24;6.65;;;2.88;;
17347;SDS011;8791;50.876;4.342;2023-07-16T01:20:51;5.93;;;2.25;;
17347;SDS011;8791;50.876;4.342;2023-07-16T01:23:26;7.22;;;2.85;;
17347;SDS011;8791;50.876;4.342;2023-07-16T01:29:06;17.45;;;3.30;;
17347;SDS011;8791;50.876;4.342;2023-07-16T01:31:42;13.70;;;3.10;;
17347;SDS011;8791;50.876;4.342;2023-07-16T01:34:11;6.97;;;2.60;;
17347;SDS011;8791;50.876;4.342;2023-07-16T01:36:38;9.10;;;2.53;;
17347;SDS011;8791;50.876;4.342;2023-07-16T01:39:06;11.48;;;2.85;;
17347;SDS011;8791;50.876;4.342;2023-07-16T01:41:33;17.27;;;3.10;;
17347;SDS011;8791;50.876;4.342;2023-07-16T01:44:00;7.10;;;2.30;;
17347;SDS011;8791;50.876;4.342;2023-07-16T01:46:28;12.85;;;3.00;;
17347;SDS011;8791;50.876;4.342;2023-07-16T01:48:55;11.70;;;2.95;;
17347;SDS011;8791;50.876;4.342;2023-07-16T01:51:22;8.93;;;3.00;;
17347;SDS011;8791;50.876;4.342;2023-07-16T01:53:48;9.38;;;2.92;;
17347;SDS011;8791;50.876;4.342;2023-07-16T01:56:15;6.88;;;2.67;;
17347;SDS011;8791;50.876;4.342;2023-07-16T01:58:42;14.43;;;3.10;;
17347;SDS011;8791;50.876;4.342;2023-07-16T02:01:09;7.80;;;2.67;;
17347;SDS011;8791;50.876;4.342;2023-07-16T02:03:37;17.60;;;3.20;;
17347;SDS011;8791;50.876;4.342;2023-07-16T02:06:04;8.93;;;3.22;;
17347;SDS011;8791;50.876;4.342;2023-07-16T02:08:31;7.10;;;2.65;;
17347;SDS011;8791;50.876;4.342;2023-07-16T02:10:58;7.07;;;3.05;;
17347;SDS011;8791;50.876;4.342;2023-07-16T02:13:25;5.47;;;2.55;;
17347;SDS011;8791;50.876;4.342;2023-07-16T02:15:53;12.55;;;2.33;;
17347;SDS011;8791;50.876;4.342;2023-07-16T02:18:20;9.02;;;2.70;;
17347;SDS011;8791;50.876;4.342;2023-07-16T02:20:48;8.25;;;3.03;;
17347;SDS011;8791;50.876;4.342;2023-07-16T02:23:15;8.07;;;2.58;;
17347;SDS011;8791;50.876;4.342;2023-07-16T02:25:42;10.52;;;3.38;;
17347;SDS011;8791;50.876;4.342;2023-07-16T02:28:09;10.88;;;3.00;;
17347;SDS011;8791;50.876;4.342;2023-07-16T02:30:36;7.78;;;3.08;;
17347;SDS011;8791;50.876;4.342;2023-07-16T02:33:03;6.55;;;3.38;;
17347;SDS011;8791;50.876;4.342;2023-07-16T02:35:30;7.63;;;3.20;;
17347;SDS011;8791;50.876;4.342;2023-07-16T02:37:58;8.75;;;3.55;;
17347;SDS011;8791;50.876;4.342;2023-07-16T02:40:25;6.78;;;3.20;;
17347;SDS011;8791;50.876;4.342;2023-07-16T02:42:51;6.72;;;3.13;;
17347;SDS011;8791;50.876;4.342;2023-07-16T02:45:18;8.82;;;3.83;;
17347;SDS011;8791;50.876;4.342;2023-07-16T02:47:47;13.85;;;3.92;;
17347;SDS011;8791;50.876;4.342;2023-07-16T02:50:14;7.10;;;3.92;;
17347;SDS011;8791;50.876;4.342;2023-07-16T02:52:44;9.82;;;3.60;;
17347;SDS011;8791;50.876;4.342;2023-07-16T02:55:12;8.40;;;4.05;;
17347;SDS011;8791;50.876;4.342;2023-07-16T02:57:41;9.43;;;4.00;;
17347;SDS011;8791;50.876;4.342;2023-07-16T03:00:12;9.23;;;4.65;;
17347;SDS011;8791;50.876;4.342;2023-07-16T03:02:49;11.52;;;4.50;;
17347;SDS011;8791;50.876;4.342;2023-07-16T03:05:16;15.20;;;4.15;;
17347;SDS011;8791;50.876;4.342;2023-07-16T03:07:43;6.05;;;3.65;;
17347;SDS011;8791;50.876;4.342;2023-07-16T03:10:10;7.35;;;4.13;;
17347;SDS011;8791;50.876;4.342;2023-07-16T03:12:38;8.68;;;4.10;;
17347;SDS011;8791;50.876;4.342;2023-07-16T03:15:05;6.68;;;4.10;;
17347;SDS011;8791;50.876;4.342;2023-07-16T03:17:33;11.68;;;4.65;;
17347;SDS011;8791;50.876;4.342;2023-07-16T03:20:00;10.32;;;4.75;;
17347;SDS011;8791;50.876;4.342;2023-07-16T03:22:29;9.48;;;4.60;;
17347;SDS011;8791;50.876;4.342;2023-07-16T03:24:56;8.30;;;3.63;;
17347;SDS011;8791;50.876;4.342;2023-07-16T03:27:23;5.78;;;3.83;;
17347;SDS011;8791;50.876;4.342;2023-07-16T03:29:51;13.82;;;4.65;;
17347;SDS011;8791;50.876;4.342;2023-07-16T03:32:17;14.57;;;4.78;;
17347;SDS011;8791;50.876;4.342;2023-07-16T03:34:43;11.50;;;4.38;;
17347;SDS011;8791;50.876;4.342;2023-07-16T03:37:10;8.65;;;3.97;;
17347;SDS011;8791;50.876;4.342;2023-07-16T03:39:37;6.63;;;4.35;;
17347;SDS011;8791;50.876;4.342;2023-07-16T03:42:05;12.80;;;4.20;;
17347;SDS011;8791;50.876;4.342;2023-07-16T03:44:32;8.85;;;4.50;;
17347;SDS011;8791;50.876;4.342;2023-07-16T03:47:00;17.08;;;4.70;;
17347;SDS011;8791;50.876;4.342;2023-07-16T03:49:27;9.63;;;4.32;;
17347;SDS011;8791;50.876;4.342;2023-07-16T03:51:54;12.82;;;5.00;;
17347;SDS011;8791;50.876;4.342;2023-07-16T03:54:21;11.48;;;3.83;;
17347;SDS011;8791;50.876;4.342;2023-07-16T03:56:48;10.73;;;4.57;;
17347;SDS011;8791;50.876;4.342;2023-07-16T03:59:15;18.58;;;5.03;;
17347;SDS011;8791;50.876;4.342;2023-07-16T04:01:41;12.52;;;4.40;;
17347;SDS011;8791;50.876;4.342;2023-07-16T04:04:10;12.63;;;5.07;;
17347;SDS011;8791;50.876;4.342;2023-07-16T04:06:36;13.00;;;4.72;;
17347;SDS011;8791;50.876;4.342;2023-07-16T04:09:03;9.82;;;4.10;;
17347;SDS011;8791;50.876;4.342;2023-07-16T04:11:30;14.23;;;4.25;;
17347;SDS011;8791;50.876;4.342;2023-07-16T04:13:57;11.27;;;4.15;;
17347;SDS011;8791;50.876;4.342;2023-07-16T04:16:24;17.08;;;4.60;;
17347;SDS011;8791;50.876;4.342;2023-07-16T04:18:51;12.73;;;4.70;;
17347;SDS011;8791;50.876;4.342;2023-07-16T04:21:19;8.55;;;4.97;;
17347;SDS011;8791;50.876;4.342;2023-07-16T04:23:46;13.55;;;4.65;;
17347;SDS011;8791;50.876;4.342;2023-07-16T04:26:13;10.57;;;5.55;;
17347;SDS011;8791;50.876;4.342;2023-07-16T04:28:39;14.48;;;5.90;;
17347;SDS011;8791;50.876;4.342;2023-07-16T04:31:06;13.45;;;5.25;;
17347;SDS011;8791;50.876;4.342;2023-07-16T04:33:33;11.18;;;5.25;;
17347;SDS011;8791;50.876;4.342;2023-07-16T04:36:00;15.50;;;5.10;;
17347;SDS011;8791;50.876;4.342;2023-07-16T04:38:28;9.85;;;4.88;;
17347;SDS011;8791;50.876;4.342;2023-07-16T04:40:55;10.77;;;4.72;;
17347;SDS011;8791;50.876;4.342;2023-07-16T04:43:22;10.77;;;4.55;;
17347;SDS011;8791;50.876;4.342;2023-07-16T04:45:48;17.90;;;4.90;;
17347;SDS011;8791;50.876;4.342;2023-07-16T04:48:16;6.50;;;3.88;;
17347;SDS011;8791;50.876;4.342;2023-07-16T04:50:43;7.22;;;4.55;;
17347;SDS011;8791;50.876;4.342;2023-07-16T04:53:09;12.02;;;4.30;;
17347;SDS011;8791;50.876;4.342;2023-07-16T04:55:38;15.40;;;4.90;;
17347;SDS011;8791;50.876;4.342;2023-07-16T04:58:05;9.55;;;4.40;;
17347;SDS011;8791;50.876;4.342;2023-07-16T05:00:32;9.50;;;4.70;;
17347;SDS011;8791;50.876;4.342;2023-07-16T05:02:59;8.40;;;4.63;;
17347;SDS011;8791;50.876;4.342;2023-07-16T05:05:26;10.48;;;4.55;;
17347;SDS011;8791;50.876;4.342;2023-07-16T05:07:53;9.70;;;4.30;;
17347;SDS011;8791;50.876;4.342;2023-07-16T05:10:20;12.18;;;5.07;;
17347;SDS011;8791;50.876;4.342;2023-07-16T05:12:48;9.30;;;4.80;;
17347;SDS011;8791;50.876;4.342;2023-07-16T05:15:15;13.75;;;4.82;;
17347;SDS011;8791;50.876;4.342;2023-07-16T05:17:42;12.68;;;5.20;;
17347;SDS011;8791;50.876;4.342;2023-07-16T05:20:09;14.05;;;5.07;;
17347;SDS011;8791;50.876;4.342;2023-07-16T05:22:36;8.85;;;4.88;;
17347;SDS011;8791;50.876;4.342;2023-07-16T05:25:04;9.70;;;4.50;;
17347;SDS011;8791;50.876;4.342;2023-07-16T05:27:31;10.77;;;5.45;;
17347;SDS011;8791;50.876;4.342;2023-07-16T05:29:59;11.27;;;5.03;;
17347;SDS011;8791;50.876;4.342;2023-07-16T05:32:26;6.93;;;4.95;;
17347;SDS011;8791;50.876;4.342;2023-07-16T05:34:53;12.40;;;5.70;;
17347;SDS011;8791;50.876;4.342;2023-07-16T05:37:20;16.13;;;5.45;;
17347;SDS011;8791;50.876;4.342;2023-07-16T05:39:47;13.45;;;6.10;;
17347;SDS011;8791;50.876;4.342;2023-07-16T05:42:13;12.50;;;5.95;;
17347;SDS011;8791;50.876;4.342;2023-07-16T05:44:40;13.73;;;6.03;;
17347;SDS011;8791;50.876;4.342;2023-07-16T05:47:10;17.80;;;5.60;;
17347;SDS011;8791;50.876;4.342;2023-07-16T05:49:37;13.38;;;5.63;;
17347;SDS011;8791;50.876;4.342;2023-07-16T05:52:04;12.88;;;5.95;;
17347;SDS011;8791;50.876;4.342;2023-07-16T05:54:32;9.90;;;6.28;;
17347;SDS011;8791;50.876;4.342;2023-07-16T05:56:59;13.55;;;6.03;;
17347;SDS011;8791;50.876;4.342;2023-07-16T05:59:26;12.98;;;6.28;;
17347;SDS011;8791;50.876;4.342;2023-07-16T06:01:53;12.55;;;6.32;;
17347;SDS011;8791;50.876;4.342;2023-07-16T06:04:24;14.90;;;5.70;;
17347;SDS011;8791;50.876;4.342;2023-07-16T06:06:50;15.27;;;6.03;;
17347;SDS011;8791;50.876;4.342;2023-07-16T06:09:17;22.70;;;7.53;;
17347;SDS011;8791;50.876;4.342;2023-07-16T06:11:45;10.25;;;6.43;;
17347;SDS011;8791;50.876;4.342;2023-07-16T06:14:13;14.70;;;6.40;;
17347;SDS011;8791;50.876;4.342;2023-07-16T06:16:40;19.75;;;6.68;;
17347;SDS011;8791;50.876;4.342;2023-07-16T06:19:07;15.68;;;6.45;;
17347;SDS011;8791;50.876;4.342;2023-07-16T06:21:35;15.32;;;6.57;;
17347;SDS011;8791;50.876;4.342;2023-07-16T06:24:02;12.48;;;6.40;;
17347;SDS011;8791;50.876;4.342;2023-07-16T06:26:29;22.55;;;6.85;;
17347;SDS011;8791;50.876;4.342;2023-07-16T06:28:56;22.50;;;7.28;;
17347;SDS011;8791;50.876;4.342;2023-07-16T06:31:22;13.25;;;6.72;;
17347;SDS011;8791;50.876;4.342;2023-07-16T06:33:49;16.42;;;6.97;;
17347;SDS011;8791;50.876;4.342;2023-07-16T06:36:16;19.08;;;7.07;;
17347;SDS011;8791;50.876;4.342;2023-07-16T06:38:46;14.50;;;7.20;;
17347;SDS011;8791;50.876;4.342;2023-07-16T06:41:13;14.10;;;6.13;;
17347;SDS011;8791;50.876;4.342;2023-07-16T06:43:40;10.68;;;6.65;;
17347;SDS011;8791;50.876;4.342;2023-07-16T06:46:07;19.77;;;6.82;;
17347;SDS011;8791;50.876;4.342;2023-07-16T06:48:33;22.88;;;7.35;;
17347;SDS011;8791;50.876;4.342;2023-07-16T06:51:00;15.15;;;6.57;;
17347;SDS011;8791;50.876;4.342;2023-07-16T06:53:27;14.95;;;6.45;;
17347;SDS011;8791;50.876;4.342;2023-07-16T06:55:55;15.32;;;7.25;;
17347;SDS011;8791;50.876;4.342;2023-07-16T06:58:24;16.08;;;7.30;;
17347;SDS011;8791;50.876;4.342;2023-07-16T07:00:57;11.63;;;5.70;;
17347;SDS011;8791;50.876;4.342;2023-07-16T07:03:24;17.02;;;6.65;;
17347;SDS011;8791;50.876;4.342;2023-07-16T07:05:51;16.10;;;5.65;;
17347;SDS011;8791;50.876;4.342;2023-07-16T07:08:18;13.57;;;5.95;;
17347;SDS011;8791;50.876;4.342;2023-07-16T07:10:46;16.33;;;6.35;;
17347;SDS011;8791;50.876;4.342;2023-07-16T07:13:16;13.38;;;6.97;;
17347;SDS011;8791;50.876;4.342;2023-07-16T07:15:43;18.63;;;6.43;;
17347;SDS011;8791;50.876;4.342;2023-07-16T07:18:10;11.73;;;6.38;;
17347;SDS011;8791;50.876;4.342;2023-07-16T07:20:37;15.70;;;6.18;;
17347;SDS011;8791;50.876;4.342;2023-07-16T07:23:05;16.42;;;6.43;;
17347;SDS011;8791;50.876;4.342;2023-07-16T07:25:32;17.80;;;7.20;;
17347;SDS011;8791;50.876;4.342;2023-07-16T07:27:59;12.68;;;6.63;;
17347;SDS011;8791;50.876;4.342;2023-07-16T07:30:27;13.40;;;6.32;;
17347;SDS011;8791;50.876;4.342;2023-07-16T07:32:54;16.00;;;6.97;;
17347;SDS011;8791;50.876;4.342;2023-07-16T07:35:21;15.50;;;6.95;;
17347;SDS011;8791;50.876;4.342;2023-07-16T07:37:48;14.75;;;6.13;;
17347;SDS011;8791;50.876;4.342;2023-07-16T07:40:18;17.05;;;6.60;;
17347;SDS011;8791;50.876;4.342;2023-07-16T07:43:13;15.38;;;6.20;;
17347;SDS011;8791;50.876;4.342;2023-07-16T07:45:42;12.15;;;6.32;;
17347;SDS011;8791;50.876;4.342;2023-07-16T07:48:09;12.52;;;7.10;;
17347;SDS011;8791;50.876;4.342;2023-07-16T07:53:25;15.02;;;6.22;;
17347;SDS011;8791;50.876;4.342;2023-07-16T07:55:52;14.05;;;7.22;;
17347;SDS011;8791;50.876;4.342;2023-07-16T07:58:20;13.93;;;5.95;;
17347;SDS011;8791;50.876;4.342;2023-07-16T08:00:48;13.23;;;6.95;;
17347;SDS011;8791;50.876;4.342;2023-07-16T08:03:15;13.75;;;6.55;;
17347;SDS011;8791;50.876;4.342;2023-07-16T08:05:43;10.65;;;6.47;;
17347;SDS011;8791;50.876;4.342;2023-07-16T08:08:12;12.55;;;6.20;;
17347;SDS011;8791;50.876;4.342;2023-07-16T08:10:41;9.60;;;6.00;;
17347;SDS011;8791;50.876;4.342;2023-07-16T08:13:08;10.45;;;5.95;;
17347;SDS011;8791;50.876;4.342;2023-07-16T08:15:35;20.85;;;6.47;;
17347;SDS011;8791;50.876;4.342;2023-07-16T08:18:03;13.38;;;6.18;;
17347;SDS011;8791;50.876;4.342;2023-07-16T08:20:30;11.55;;;5.78;;
17347;SDS011;8791;50.876;4.342;2023-07-16T08:22:57;17.02;;;6.22;;
17347;SDS011;8791;50.876;4.342;2023-07-16T08:25:24;15.73;;;5.90;;
17347;SDS011;8791;50.876;4.342;2023-07-16T08:27:52;13.75;;;5.60;;
17347;SDS011;8791;50.876;4.342;2023-07-16T08:30:18;13.43;;;5.70;;
17347;SDS011;8791;50.876;4.342;2023-07-16T08:32:45;11.18;;;5.45;;
17347;SDS011;8791;50.876;4.342;2023-07-16T08:35:15;17.30;;;5.88;;
17347;SDS011;8791;50.876;4.342;2023-07-16T08:37:42;11.98;;;5.32;;
17347;SDS011;8791;50.876;4.342;2023-07-16T08:40:10;9.43;;;5.45;;
17347;SDS011;8791;50.876;4.342;2023-07-16T08:42:37;10.68;;;5.10;;
17347;SDS011;8791;50.876;4.342;2023-07-16T08:45:05;14.73;;;5.28;;
17347;SDS011;8791;50.876;4.342;2023-07-16T08:47:35;10.30;;;4.93;;
17347;SDS011;8791;50.876;4.342;2023-07-16T08:50:04;18.13;;;5.70;;
17347;SDS011;8791;50.876;4.342;2023-07-16T08:52:32;10.23;;;4.57;;
17347;SDS011;8791;50.876;4.342;2023-07-16T08:54:59;10.23;;;4.95;;
17347;SDS011;8791;50.876;4.342;2023-07-16T08:57:26;10.32;;;5.18;;
17347;SDS011;8791;50.876;4.342;2023-07-16T08:59:54;10.82;;;5.60;;
17347;SDS011;8791;50.876;4.342;2023-07-16T09:02:22;13.15;;;4.82;;
17347;SDS011;8791;50.876;4.342;2023-07-16T09:04:49;9.93;;;4.88;;
17347;SDS011;8791;50.876;4.342;2023-07-16T09:07:17;16.05;;;5.72;;
17347;SDS011;8791;50.876;4.342;2023-07-16T09:09:55;14.35;;;5.15;;
17347;SDS011;8791;50.876;4.342;2023-07-16T09:12:24;8.07;;;4.65;;
17347;SDS011;8791;50.876;4.342;2023-07-16T09:14:52;13.07;;;4.82;;
17347;SDS011;8791;50.876;4.342;2023-07-16T09:17:20;13.60;;;5.28;;
17347;SDS011;8791;50.876;4.342;2023-07-16T09:19:48;10.43;;;4.85;;
17347;SDS011;8791;50.876;4.342;2023-07-16T09:22:16;14.18;;;5.47;;
17347;SDS011;8791;50.876;4.342;2023-07-16T09:24:44;14.82;;;5.03;;
17347;SDS011;8791;50.876;4.342;2023-07-16T09:27:13;14.73;;;4.82;;
17347;SDS011;8791;50.876;4.342;2023-07-16T09:29:40;7.93;;;5.10;;
17347;SDS011;8791;50.876;4.342;2023-07-16T09:32:07;9.95;;;5.07;;
17347;SDS011;8791;50.876;4.342;2023-07-16T09:34:34;13.27;;;4.93;;
17347;SDS011;8791;50.876;4.342;2023-07-16T09:37:01;14.43;;;5.45;;
17347;SDS011;8791;50.876;4.342;2023-07-16T09:39:31;9.13;;;4.82;;
17347;SDS011;8791;50.876;4.342;2023-07-16T09:41:59;14.20;;;5.50;;
17347;SDS011;8791;50.876;4.342;2023-07-16T09:44:28;10.63;;;5.63;;
17347;SDS011;8791;50.876;4.342;2023-07-16T09:46:56;10.32;;;5.10;;
17347;SDS011;8791;50.876;4.342;2023-07-16T09:49:23;9.40;;;5.00;;
17347;SDS011;8791;50.876;4.342;2023-07-16T09:51:50;8.95;;;4.93;;
17347;SDS011;8791;50.876;4.342;2023-07-16T09:54:23;15.65;;;6.47;;
17347;SDS011;8791;50.876;4.342;2023-07-16T09:56:52;12.20;;;5.25;;
17347;SDS011;8791;50.876;4.342;2023-07-16T09:59:24;12.98;;;4.95;;
17347;SDS011;8791;50.876;4.342;2023-07-16T10:01:56;11.07;;;6.35;;
17347;SDS011;8791;50.876;4.342;2023-07-16T10:04:24;9.52;;;5.15;;
17347;SDS011;8791;50.876;4.342;2023-07-16T10:06:52;7.28;;;5.22;;
17347;SDS011;8791;50.876;4.342;2023-07-16T10:09:36;9.90;;;4.63;;
17347;SDS011;8791;50.876;4.342;2023-07-16T10:14:50;13.35;;;5.60;;
17347;SDS011;8791;50.876;4.342;2023-07-16T10:17:20;12.32;;;5.50;;
17347;SDS011;8791;50.876;4.342;2023-07-16T10:19:49;8.60;;;5.82;;
17347;SDS011;8791;50.876;4.342;2023-07-16T10:22:31;13.45;;;6.05;;
17347;SDS011;8791;50.876;4.342;2023-07-16T10:25:01;9.65;;;5.28;;
17347;SDS011;8791;50.876;4.342;2023-07-16T10:27:29;11.18;;;4.53;;
17347;SDS011;8791;50.876;4.342;2023-07-16T10:29:57;11.13;;;4.75;;
17347;SDS011;8791;50.876;4.342;2023-07-16T10:32:27;7.85;;;4.20;;
17347;SDS011;8791;50.876;4.342;2023-07-16T10:34:55;13.18;;;5.03;;
17347;SDS011;8791;50.876;4.342;2023-07-16T10:37:22;14.02;;;4.25;;
17347;SDS011;8791;50.876;4.342;2023-07-16T10:39:50;10.93;;;4.03;;
17347;SDS011;8791;50.876;4.342;2023-07-16T10:42:19;8.13;;;4.28;;
17347;SDS011;8791;50.876;4.342;2023-07-16T10:44:48;9.50;;;4.28;;
17347;SDS011;8791;50.876;4.342;2023-07-16T10:47:20;10.00;;;4.25;;
17347;SDS011;8791;50.876;4.342;2023-07-16T10:49:50;8.55;;;4.35;;
17347;SDS011;8791;50.876;4.342;2023-07-16T10:52:19;8.45;;;4.00;;
17347;SDS011;8791;50.876;4.342;2023-07-16T10:54:47;9.57;;;4.32;;
17347;SDS011;8791;50.876;4.342;2023-07-16T10:57:17;7.60;;;4.00;;
17347;SDS011;8791;50.876;4.342;2023-07-16T10:59:44;8.77;;;4.43;;
17347;SDS011;8791;50.876;4.342;2023-07-16T11:02:14;6.93;;;4.70;;
17347;SDS011;8791;50.876;4.342;2023-07-16T11:04:42;8.85;;;4.78;;
17347;SDS011;8791;50.876;4.342;2023-07-16T11:07:12;7.43;;;4.57;;
17347;SDS011;8791;50.876;4.342;2023-07-16T11:09:40;13.30;;;4.70;;
17347;SDS011;8791;50.876;4.342;2023-07-16T11:12:09;10.25;;;4.90;;
17347;SDS011;8791;50.876;4.342;2023-07-16T11:14:37;9.23;;;4.72;;
17347;SDS011;8791;50.876;4.342;2023-07-16T11:17:05;10.18;;;4.80;;
17347;SDS011;8791;50.876;4.342;2023-07-16T11:19:34;8.27;;;4.43;;
17347;SDS011;8791;50.876;4.342;2023-07-16T11:22:18;9.90;;;4.57;;
17347;SDS011;8791;50.876;4.342;2023-07-16T11:24:56;12.38;;;4.45;;
17347;SDS011;8791;50.876;4.342;2023-07-16T11:27:25;9.82;;;4.32;;
17347;SDS011;8791;50.876;4.342;2023-07-16T11:29:53;14.88;;;4.57;;
17347;SDS011;8791;50.876;4.342;2023-07-16T11:32:28;8.93;;;4.57;;
17347;SDS011;8791;50.876;4.342;2023-07-16T11:34:59;7.40;;;4.72;;
17347;SDS011;8791;50.876;4.342;2023-07-16T11:37:29;11.35;;;4.88;;
17347;SDS011;8791;50.876;4.342;2023-07-16T11:39:57;10.30;;;4.30;;
17347;SDS011;8791;50.876;4.342;2023-07-16T11:42:27;7.50;;;4.63;;
17347;SDS011;8791;50.876;4.342;2023-07-16T11:44:55;6.65;;;3.97;;
17347;SDS011;8791;50.876;4.342;2023-07-16T11:47:22;8.18;;;4.00;;
17347;SDS011;8791;50.876;4.342;2023-07-16T11:49:50;14.45;;;5.03;;
17347;SDS011;8791;50.876;4.342;2023-07-16T11:52:18;10.52;;;4.05;;
17347;SDS011;8791;50.876;4.342;2023-07-16T11:54:47;8.98;;;4.53;;
17347;SDS011;8791;50.876;4.342;2023-07-16T11:57:25;14.48;;;4.20;;
17347;SDS011;8791;50.876;4.342;2023-07-16T11:59:55;8.43;;;4.30;;
17347;SDS011;8791;50.876;4.342;2023-07-16T12:02:22;11.73;;;4.47;;
17347;SDS011;8791;50.876;4.342;2023-07-16T12:04:50;6.45;;;4.15;;
17347;SDS011;8791;50.876;4.342;2023-07-16T12:07:30;9.00;;;4.57;;
17347;SDS011;8791;50.876;4.342;2023-07-16T12:09:58;6.03;;;3.42;;
17347;SDS011;8791;50.876;4.342;2023-07-16T12:12:26;8.82;;;4.05;;
17347;SDS011;8791;50.876;4.342;2023-07-16T12:14:53;9.80;;;4.35;;
17347;SDS011;8791;50.876;4.342;2023-07-16T12:17:20;9.05;;;4.53;;
17347;SDS011;8791;50.876;4.342;2023-07-16T12:19:47;13.70;;;4.53;;
17347;SDS011;8791;50.876;4.342;2023-07-16T12:22:14;5.95;;;4.00;;
17347;SDS011;8791;50.876;4.342;2023-07-16T12:24:43;5.38;;;3.78;;
17347;SDS011;8791;50.876;4.342;2023-07-16T12:27:12;11.93;;;4.10;;
17347;SDS011;8791;50.876;4.342;2023-07-16T12:29:40;10.27;;;4.18;;
17347;SDS011;8791;50.876;4.342;2023-07-16T12:32:07;10.45;;;4.32;;
17347;SDS011;8791;50.876;4.342;2023-07-16T12:34:34;5.35;;;3.20;;
17347;SDS011;8791;50.876;4.342;2023-07-16T12:37:02;5.78;;;3.33;;
17347;SDS011;8791;50.876;4.342;2023-07-16T12:39:30;6.88;;;3.67;;
17347;SDS011;8791;50.876;4.342;2023-07-16T12:42:01;9.57;;;3.33;;
17347;SDS011;8791;50.876;4.342;2023-07-16T12:44:39;5.75;;;2.75;;
17347;SDS011;8791;50.876;4.342;2023-07-16T12:47:06;6.63;;;3.17;;
17347;SDS011;8791;50.876;4.342;2023-07-16T12:49:34;4.80;;;2.63;;
17347;SDS011;8791;50.876;4.342;2023-07-16T12:52:01;4.50;;;2.70;;
17347;SDS011;8791;50.876;4.342;2023-07-16T12:54:28;6.43;;;2.35;;
17347;SDS011;8791;50.876;4.342;2023-07-16T12:56:55;2.80;;;2.55;;
17347;SDS011;8791;50.876;4.342;2023-07-16T12:59:22;3.75;;;2.70;;
17347;SDS011;8791;50.876;4.342;2023-07-16T13:01:51;4.88;;;2.90;;
17347;SDS011;8791;50.876;4.342;2023-07-16T13:04:21;70.72;;;7.75;;
17347;SDS011;8791;50.876;4.342;2023-07-16T13:06:51;5.78;;;2.72;;
17347;SDS011;8791;50.876;4.342;2023-07-16T13:09:21;4.60;;;3.15;;
17347;SDS011;8791;50.876;4.342;2023-07-16T13:11:49;6.05;;;3.33;;
17347;SDS011;8791;50.876;4.342;2023-07-16T13:14:25;5.78;;;3.17;;
17347;SDS011;8791;50.876;4.342;2023-07-16T13:23:18;5.97;;;3.08;;
17347;SDS011;8791;50.876;4.342;2023-07-16T13:26:16;7.57;;;3.05;;
17347;SDS011;8791;50.876;4.342;2023-07-16T13:28:46;3.72;;;2.63;;
17347;SDS011;8791;50.876;4.342;2023-07-16T13:31:13;7.72;;;2.95;;
17347;SDS011;8791;50.876;4.342;2023-07-16T13:33:41;6.95;;;2.35;;
17347;SDS011;8791;50.876;4.342;2023-07-16T13:36:08;3.45;;;2.10;;
17347;SDS011;8791;50.876;4.342;2023-07-16T13:38:35;2.45;;;2.10;;
17347;SDS011;8791;50.876;4.342;2023-07-16T13:41:02;4.07;;;1.92;;
17347;SDS011;8791;50.876;4.342;2023-07-16T13:43:46;4.95;;;2.78;;
17347;SDS011;8791;50.876;4.342;2023-07-16T13:49:26;3.75;;;1.88;;
17347;SDS011;8791;50.876;4.342;2023-07-16T13:51:53;4.05;;;1.85;;
17347;SDS011;8791;50.876;4.342;2023-07-16T13:54:24;3.97;;;2.35;;
17347;SDS011;8791;50.876;4.342;2023-07-16T13:56:58;5.03;;;2.47;;
17347;SDS011;8791;50.876;4.342;2023-07-16T13:59:26;3.92;;;2.38;;
17347;SDS011;8791;50.876;4.342;2023-07-16T14:01:58;2.90;;;2.42;;
17347;SDS011;8791;50.876;4.342;2023-07-16T14:04:27;4.13;;;2.53;;
17347;SDS011;8791;50.876;4.342;2023-07-16T14:06:54;3.55;;;2.42;;
17347;SDS011;8791;50.876;4.342;2023-07-16T14:09:22;6.32;;;2.47;;
17347;SDS011;8791;50.876;4.342;2023-07-16T14:11:49;5.63;;;3.38;;
17347;SDS011;8791;50.876;4.342;2023-07-16T14:14:16;5.93;;;3.10;;
17347;SDS011;8791;50.876;4.342;2023-07-16T14:16:43;6.72;;;3.40;;
17347;SDS011;8791;50.876;4.342;2023-07-16T14:19:10;8.65;;;3.40;;
17347;SDS011;8791;50.876;4.342;2023-07-16T14:21:39;11.35;;;2.75;;
17347;SDS011;8791;50.876;4.342;2023-07-16T14:24:07;3.90;;;3.40;;
17347;SDS011;8791;50.876;4.342;2023-07-16T14:26:34;4.18;;;3.15;;
17347;SDS011;8791;50.876;4.342;2023-07-16T14:29:01;3.80;;;2.70;;
17347;SDS011;8791;50.876;4.342;2023-07-16T14:31:28;5.38;;;2.95;;
17347;SDS011;8791;50.876;4.342;2023-07-16T14:33:55;3.08;;;2.10;;
17347;SDS011;8791;50.876;4.342;2023-07-16T14:36:23;4.80;;;2.50;;
17347;SDS011;8791;50.876;4.342;2023-07-16T14:38:51;5.70;;;2.05;;
17347;SDS011;8791;50.876;4.342;2023-07-16T14:41:18;2.13;;;1.70;;
17347;SDS011;8791;50.876;4.342;2023-07-16T14:43:45;2.05;;;1.50;;
17347;SDS011;8791;50.876;4.342;2023-07-16T14:46:14;3.40;;;1.48;;
17347;SDS011;8791;50.876;4.342;2023-07-16T14:48:41;2.33;;;1.50;;
17347;SDS011;8791;50.876;4.342;2023-07-16T14:51:09;2.95;;;1.10;;
17347;SDS011;8791;50.876;4.342;2023-07-16T14:53:36;2.53;;;1.60;;
17347;SDS011;8791;50.876;4.342;2023-07-16T14:56:07;1.65;;;1.42;;
17347;SDS011;8791;50.876;4.342;2023-07-16T14:58:46;3.63;;;1.20;;
17347;SDS011;8791;50.876;4.342;2023-07-16T15:01:13;2.25;;;1.30;;
17347;SDS011;8791;50.876;4.342;2023-07-16T15:03:40;5.85;;;1.70;;
17347;SDS011;8791;50.876;4.342;2023-07-16T15:06:07;3.13;;;1.90;;
17347;SDS011;8791;50.876;4.342;2023-07-16T15:08:34;2.55;;;1.30;;
17347;SDS011;8791;50.876;4.342;2023-07-16T15:11:01;1.73;;;1.20;;
17347;SDS011;8791;50.876;4.342;2023-07-16T15:13:33;2.15;;;1.80;;
17347;SDS011;8791;50.876;4.342;2023-07-16T15:16:01;3.28;;;1.40;;
17347;SDS011;8791;50.876;4.342;2023-07-16T15:18:29;2.80;;;1.50;;
17347;SDS011;8791;50.876;4.342;2023-07-16T15:20:59;3.03;;;1.60;;